Time;durP1;ratioP1;P1;durP2;ratioP2;P2;SDS_P1;SDS_P2;PMS_P1;PMS_P2;Temp;Humidity;BMP_temperature;BMP_pressure;BME280_temperature;BME280_humidity;BME280_pressure;Samples;Min_cycle;Max_cycle;Signal;HPM_P1;HPM_P2
2022/05/22 00:00:26;;;;;;;2.70;1.42;;;16.50;49.70;;;;;;1845112;78;21028;-58
2022/05/22 00:02:55;;;;;;;2.05;1.30;;;16.50;49.80;;;;;;1845034;78;21027;-58
2022/05/22 00:05:25;;;;;;;1.30;1.20;;;16.50;49.80;;;;;;1845173;77;21134;-58
2022/05/22 00:07:55;;;;;;;3.90;1.50;;;16.50;49.70;;;;;;1845135;77;21055;-58
2022/05/22 00:10:25;;;;;;;2.72;1.20;;;16.50;49.70;;;;;;1845156;77;21110;-58
2022/05/22 00:12:54;;;;;;;10.23;1.37;;;16.50;50.00;;;;;;1845133;77;21109;-58
2022/05/22 00:15:23;;;;;;;1.42;1.20;;;16.50;50.00;;;;;;1845233;78;21556;-57
2022/05/22 00:17:53;;;;;;;3.55;1.60;;;16.50;50.20;;;;;;1845153;78;21090;-58
2022/05/22 00:20:22;;;;;;;2.08;1.40;;;16.50;50.30;;;;;;1845203;78;21043;-58
2022/05/22 00:22:51;;;;;;;2.67;1.50;;;16.50;50.40;;;;;;1845136;78;21032;-57
2022/05/22 00:25:21;;;;;;;1.67;1.37;;;16.40;50.50;;;;;;1845081;77;21031;-58
2022/05/22 00:27:52;;;;;;;2.45;1.25;;;16.40;50.50;;;;;;1845228;78;21542;-58
2022/05/22 00:30:21;;;;;;;4.10;1.37;;;16.40;50.60;;;;;;1845271;77;21015;-57
2022/05/22 00:32:51;;;;;;;3.30;1.30;;;16.40;50.60;;;;;;1845130;78;21112;-58
2022/05/22 00:35:20;;;;;;;1.92;1.42;;;16.40;50.50;;;;;;1845131;78;21113;-57
2022/05/22 00:37:50;;;;;;;2.27;1.32;;;16.40;50.50;;;;;;1845159;78;21044;-58
2022/05/22 00:40:19;;;;;;;2.37;1.32;;;16.40;50.50;;;;;;1845196;78;21056;-57
2022/05/22 00:42:50;;;;;;;3.58;1.10;;;16.40;50.40;;;;;;1844764;77;21043;-58
2022/05/22 00:45:19;;;;;;;2.52;1.10;;;16.40;50.50;;;;;;1838620;78;21036;-58
2022/05/22 00:47:51;;;;;;;1.40;1.07;;;16.40;50.40;;;;;;1838620;78;21047;-58
2022/05/22 00:50:20;;;;;;;1.85;1.20;;;16.40;50.30;;;;;;1838672;78;21096;-57
2022/05/22 00:52:58;;;;;;;1.95;1.40;;;16.40;50.30;;;;;;1838838;78;21024;-58
2022/05/22 00:55:30;;;;;;;1.62;1.17;;;16.40;50.30;;;;;;1838766;78;21031;-57
2022/05/22 00:58:02;;;;;;;2.77;1.25;;;16.40;50.40;;;;;;1838719;78;21032;-58
2022/05/22 01:00:35;;;;;;;1.70;0.85;;;16.40;50.50;;;;;;1838880;78;21059;-58
2022/05/22 01:03:28;;;;;;;3.17;1.47;;;16.40;50.10;;;;;;1838802;78;21020;-58
2022/05/22 01:06:07;;;;;;;1.67;1.42;;;16.40;50.40;;;;;;1838810;78;21117;-57
2022/05/22 01:08:39;;;;;;;2.85;1.40;;;16.40;50.30;;;;;;1838725;78;21019;-58
2022/05/22 01:11:10;;;;;;;2.10;1.30;;;16.40;50.30;;;;;;1838755;78;21044;-58
2022/05/22 01:13:42;;;;;;;2.50;1.15;;;16.40;50.40;;;;;;1838983;78;21557;-57
2022/05/22 01:16:12;;;;;;;2.25;1.30;;;16.40;50.30;;;;;;1838407;78;21110;-58
2022/05/22 01:18:47;;;;;;;2.10;1.35;;;16.40;50.40;;;;;;1838809;78;21106;-58
2022/05/22 01:21:19;;;;;;;3.67;1.65;;;16.40;50.50;;;;;;1838750;78;21043;-58
2022/05/22 01:23:50;;;;;;;2.75;1.25;;;16.30;50.40;;;;;;1837910;78;21130;-58
2022/05/22 01:26:25;;;;;;;2.52;1.20;;;16.30;50.50;;;;;;1838806;78;21087;-57
2022/05/22 01:28:56;;;;;;;3.83;1.20;;;16.30;50.60;;;;;;1838779;78;21071;-58
2022/05/22 01:31:26;;;;;;;2.25;1.30;;;16.30;50.70;;;;;;1838734;78;21047;-58
2022/05/22 01:33:55;;;;;;;1.30;1.10;;;16.30;50.70;;;;;;1838810;78;21101;-58
2022/05/22 01:36:25;;;;;;;3.00;1.20;;;16.30;50.50;;;;;;1838737;78;21016;-58
2022/05/22 01:38:56;;;;;;;2.30;1.30;;;16.30;50.60;;;;;;1838634;78;21125;-58
2022/05/22 01:41:27;;;;;;;1.47;1.27;;;16.20;50.40;;;;;;1838677;78;21039;-57
2022/05/22 01:43:57;;;;;;;2.65;1.30;;;16.20;50.60;;;;;;1838050;78;21066;-58
2022/05/22 01:46:26;;;;;;;1.95;1.30;;;16.20;51.00;;;;;;1836377;78;21050;-58
2022/05/22 01:48:57;;;;;;;2.08;1.30;;;16.20;51.10;;;;;;1836412;78;21129;-58
2022/05/22 01:51:28;;;;;;;5.05;1.30;;;16.20;52.10;;;;;;1836453;78;21097;-58
2022/05/22 01:54:01;;;;;;;2.67;1.42;;;16.20;52.00;;;;;;1836461;78;21151;-58
2022/05/22 01:56:30;;;;;;;1.70;1.40;;;16.10;52.30;;;;;;1836479;78;21038;-58
2022/05/22 01:58:59;;;;;;;2.55;1.50;;;16.10;52.30;;;;;;1835969;77;21114;-58
2022/05/22 02:01:31;;;;;;;1.40;1.30;;;16.00;52.60;;;;;;1836318;78;21046;-58
2022/05/22 02:04:02;;;;;;;2.08;1.40;;;16.00;53.20;;;;;;1836382;78;21596;-58
2022/05/22 02:09:40;;;;;;;7.92;1.80;;;15.90;53.40;;;;;;1884307;76;21162;-58
2022/05/22 02:12:10;;;;;;;2.72;1.47;;;15.90;53.40;;;;;;1884419;76;21343;-58
2022/05/22 02:14:39;;;;;;;1.92;1.10;;;15.80;53.40;;;;;;1887026;76;21041;-57
2022/05/22 02:17:10;;;;;;;1.40;1.20;;;15.80;53.00;;;;;;1886224;75;21057;-58
2022/05/22 02:19:41;;;;;;;2.00;1.30;;;15.90;52.50;;;;;;1884820;76;21038;-58
2022/05/22 02:22:10;;;;;;;2.50;1.40;;;15.90;52.20;;;;;;1887108;76;21531;-58
2022/05/22 02:24:40;;;;;;;2.42;1.07;;;15.90;51.80;;;;;;1886979;76;21099;-58
2022/05/22 02:27:10;;;;;;;2.42;1.32;;;16.00;52.20;;;;;;1886011;76;21161;-58
2022/05/22 02:29:40;;;;;;;2.25;1.22;;;16.00;53.10;;;;;;1857481;76;21029;-58
2022/05/22 02:32:10;;;;;;;1.95;1.40;;;16.10;52.80;;;;;;1887020;76;21034;-58
2022/05/22 02:34:39;;;;;;;1.37;1.10;;;16.10;52.40;;;;;;1887230;76;21054;-58
2022/05/22 02:37:09;;;;;;;1.40;1.30;;;16.20;52.70;;;;;;1887077;76;21096;-58
2022/05/22 02:39:38;;;;;;;2.05;1.20;;;16.30;52.80;;;;;;1887008;75;21052;-58
2022/05/22 02:42:10;;;;;;;1.52;1.20;;;16.40;52.00;;;;;;1882380;76;21029;-58
2022/05/22 02:44:39;;;;;;;5.28;1.50;;;16.50;51.50;;;;;;1887077;76;21037;-58
2022/05/22 02:47:09;;;;;;;2.05;1.60;;;16.60;50.90;;;;;;1887138;76;21046;-58
2022/05/22 02:49:38;;;;;;;2.00;1.30;;;16.60;50.90;;;;;;1887266;76;21084;-58
2022/05/22 02:52:08;;;;;;;3.58;1.30;;;16.60;51.50;;;;;;1887008;76;21033;-58
2022/05/22 02:54:37;;;;;;;3.45;1.57;;;16.60;51.50;;;;;;1887022;76;21033;-58
2022/05/22 02:57:08;;;;;;;2.05;1.40;;;16.70;51.20;;;;;;1886113;76;21102;-58
2022/05/22 02:59:42;;;;;;;2.43;1.10;;;16.70;51.10;;;;;;1886361;76;21068;-57
2022/05/22 03:02:13;;;;;;;3.60;1.60;;;16.70;51.00;;;;;;1884395;76;21084;-58
2022/05/22 03:04:43;;;;;;;1.55;1.35;;;16.70;50.90;;;;;;1887023;76;21033;-58
2022/05/22 03:07:15;;;;;;;2.22;1.10;;;16.80;50.20;;;;;;1886719;76;21086;-58
2022/05/22 03:09:48;;;;;;;1.77;1.20;;;16.80;49.30;;;;;;1929588;74;21114;-58
2022/05/22 03:12:19;;;;;;;1.72;1.25;;;16.90;48.10;;;;;;1930265;74;21023;-58
2022/05/22 03:14:52;;;;;;;2.15;1.20;;;17.00;48.60;;;;;;1930056;74;21083;-57
2022/05/22 03:17:22;;;;;;;12.35;4.47;;;17.00;47.90;;;;;;1930278;74;21035;-57
2022/05/22 03:19:56;;;;;;;4.30;1.90;;;17.10;48.50;;;;;;1930330;74;21081;-58
2022/05/22 03:22:25;;;;;;;16.77;6.35;;;17.20;47.90;;;;;;1930137;74;21105;-58
2022/05/22 03:24:55;;;;;;;11.90;5.80;;;17.20;47.30;;;;;;1930136;74;21097;-58
2022/05/22 03:27:26;;;;;;;11.38;5.25;;;17.30;48.00;;;;;;1929922;74;21136;-58
2022/05/22 03:29:55;;;;;;;8.15;3.85;;;17.50;47.90;;;;;;1930210;74;21007;-57
2022/05/22 03:32:26;;;;;;;4.53;2.87;;;17.60;46.60;;;;;;1930164;74;21034;-58
2022/05/22 03:34:55;;;;;;;4.90;2.27;;;17.60;46.90;;;;;;1930160;74;21039;-58
2022/05/22 03:37:24;;;;;;;7.65;1.40;;;17.60;46.20;;;;;;1930096;74;21055;-58
2022/05/22 03:39:56;;;;;;;7.42;2.77;;;17.70;45.80;;;;;;1930129;74;21113;-58
2022/05/22 03:42:26;;;;;;;4.35;2.00;;;17.70;45.90;;;;;;1930201;74;21070;-58
2022/05/22 03:44:55;;;;;;;5.72;2.40;;;17.80;44.90;;;;;;1930223;74;21458;-57
2022/05/22 03:47:24;;;;;;;7.03;3.27;;;17.90;45.60;;;;;;1930086;74;21003;-58
2022/05/22 03:50:05;;;;;;;8.85;4.53;;;17.90;45.80;;;;;;1929678;74;21059;-58
2022/05/22 03:52:36;;;;;;;10.65;4.53;;;18.00;46.10;;;;;;1930162;74;21030;-58
2022/05/22 03:55:09;;;;;;;5.40;1.90;;;18.10;46.50;;;;;;1930045;74;21139;-58
2022/05/22 03:57:38;;;;;;;2.37;1.90;;;18.20;45.80;;;;;;1930240;74;21100;-57
2022/05/22 04:00:10;;;;;;;5.75;2.10;;;18.20;46.10;;;;;;1930229;74;21050;-58
2022/05/22 04:02:40;;;;;;;5.95;3.25;;;18.20;46.40;;;;;;1929385;74;21549;-58
2022/05/22 04:05:12;;;;;;;4.62;2.00;;;18.10;46.50;;;;;;1930246;74;21120;-58
2022/05/22 04:07:42;;;;;;;12.20;2.72;;;18.10;46.20;;;;;;1930221;74;21104;-58
2022/05/22 04:10:13;;;;;;;4.12;2.22;;;18.00;46.00;;;;;;1933233;74;21034;-58
2022/05/22 04:12:43;;;;;;;4.17;2.27;;;17.90;46.40;;;;;;1933787;74;21065;-57
2022/05/22 04:15:15;;;;;;;3.30;1.80;;;17.80;46.00;;;;;;1933806;74;21039;-58
2022/05/22 04:17:45;;;;;;;4.70;2.35;;;17.80;45.80;;;;;;1933787;74;21093;-57
2022/05/22 04:20:20;;;;;;;7.47;2.55;;;17.70;46.20;;;;;;1933192;73;21058;-58
2022/05/22 04:25:36;;;;;;;1.92;1.17;;;17.70;46.30;;;;;;1933880;74;21066;-58
2022/05/22 04:28:06;;;;;;;2.72;1.50;;;17.70;46.10;;;;;;1933807;74;21003;-58
2022/05/22 04:30:36;;;;;;;2.00;1.12;;;17.70;46.50;;;;;;1933882;74;21027;-58
2022/05/22 04:33:06;;;;;;;2.65;1.17;;;17.70;46.50;;;;;;1933148;74;21159;-58
2022/05/22 04:35:37;;;;;;;1.70;1.12;;;17.70;46.80;;;;;;1933883;74;21067;-58
2022/05/22 04:38:07;;;;;;;3.42;1.50;;;17.90;46.70;;;;;;1933800;74;21085;-58
2022/05/22 04:40:37;;;;;;;3.80;1.65;;;18.10;46.70;;;;;;1933789;74;21066;-58
2022/05/22 04:43:06;;;;;;;1.72;1.20;;;18.20;46.30;;;;;;1933877;74;21136;-58
2022/05/22 04:45:36;;;;;;;2.12;1.35;;;18.40;45.70;;;;;;1933735;74;21030;-58
2022/05/22 04:48:07;;;;;;;7.60;1.60;;;18.60;46.20;;;;;;1933598;74;21087;-58
2022/05/22 04:50:38;;;;;;;1.47;1.20;;;18.90;45.20;;;;;;1932613;74;21037;-57
2022/05/22 04:53:12;;;;;;;3.10;1.27;;;19.00;44.40;;;;;;1934109;74;21088;-58
2022/05/22 04:55:52;;;;;;;6.65;1.37;;;19.20;43.00;;;;;;1910835;74;21037;-57
2022/05/22 04:58:22;;;;;;;1.52;1.17;;;19.30;42.60;;;;;;1933734;74;21046;-58
2022/05/22 05:00:51;;;;;;;2.12;1.00;;;19.50;42.00;;;;;;1933898;74;21096;-57
2022/05/22 05:03:21;;;;;;;2.10;1.10;;;19.60;41.90;;;;;;1933808;74;21026;-58
2022/05/22 05:05:57;;;;;;;1.65;1.20;;;19.70;41.70;;;;;;1933816;74;21030;-58
2022/05/22 05:08:29;;;;;;;2.08;1.40;;;19.90;41.50;;;;;;1933790;74;21043;-58
2022/05/22 05:11:04;;;;;;;1.00;0.80;;;20.00;41.30;;;;;;1929712;74;21074;-58
2022/05/22 05:13:35;;;;;;;1.62;1.10;;;20.10;41.50;;;;;;1929512;74;21034;-57
2022/05/22 05:16:07;;;;;;;4.58;2.45;;;20.30;40.90;;;;;;1930274;74;21144;-58
2022/05/22 05:18:44;;;;;;;1.45;1.35;;;20.40;40.30;;;;;;1928752;74;21083;-57
2022/05/22 05:21:15;;;;;;;1.70;1.40;;;20.50;40.00;;;;;;1930261;74;21027;-58
2022/05/22 05:23:45;;;;;;;1.10;0.95;;;20.50;40.00;;;;;;1930228;74;21033;-58
2022/05/22 05:26:16;;;;;;;1.60;1.30;;;20.60;40.20;;;;;;1929527;74;21090;-57
2022/05/22 05:28:45;;;;;;;2.08;0.90;;;20.70;40.40;;;;;;1930237;74;21031;-57
2022/05/22 05:31:16;;;;;;;2.80;1.60;;;20.80;40.30;;;;;;1929524;74;21094;-58
2022/05/22 05:33:46;;;;;;;1.25;1.05;;;20.90;40.20;;;;;;1930173;74;21085;-58
2022/05/22 05:36:23;;;;;;;3.65;1.12;;;21.00;40.10;;;;;;1895160;74;21119;-58
2022/05/22 05:38:56;;;;;;;2.30;1.25;;;21.00;39.70;;;;;;1889363;74;21094;-58
2022/05/22 05:41:29;;;;;;;3.27;1.47;;;21.10;40.00;;;;;;1922513;74;21071;-57
2022/05/22 05:44:01;;;;;;;3.37;1.32;;;21.10;39.40;;;;;;1930141;74;21022;-57
2022/05/22 05:46:31;;;;;;;1.30;1.00;;;21.20;39.30;;;;;;1930391;74;21031;-57
2022/05/22 05:49:02;;;;;;;3.08;1.15;;;21.20;39.20;;;;;;1929153;74;21498;-58
2022/05/22 05:51:31;;;;;;;2.85;1.12;;;21.20;38.70;;;;;;1930350;74;21031;-58
2022/05/22 05:54:01;;;;;;;1.90;1.12;;;21.30;39.00;;;;;;1930188;74;21109;-57
2022/05/22 05:56:41;;;;;;;1.50;1.05;;;21.40;38.50;;;;;;1861268;76;21154;-58
2022/05/22 05:59:12;;;;;;;5.05;1.50;;;21.40;38.50;;;;;;1850035;77;21160;-57
2022/05/22 06:01:43;;;;;;;1.77;1.30;;;21.50;38.60;;;;;;1925532;74;21075;-58
2022/05/22 06:04:12;;;;;;;3.17;1.35;;;21.60;38.70;;;;;;1930142;74;21487;-58
2022/05/22 06:06:42;;;;;;;1.87;0.95;;;21.60;39.90;;;;;;1930209;74;21003;-58
2022/05/22 06:09:11;;;;;;;1.85;1.00;;;21.60;39.20;;;;;;1930360;74;21027;-58
2022/05/22 06:11:57;;;;;;;3.65;1.47;;;21.70;39.20;;;;;;1900470;74;21093;-57
2022/05/22 06:14:34;;;;;;;2.05;1.15;;;21.60;39.50;;;;;;1928496;74;21059;-57
2022/05/22 06:17:03;;;;;;;3.52;1.60;;;21.60;40.10;;;;;;1930368;74;21101;-58
2022/05/22 06:19:55;;;;;;;1.92;1.57;;;21.70;40.50;;;;;;1929584;74;21157;-58
2022/05/22 06:22:28;;;;;;;2.10;1.37;;;21.70;40.40;;;;;;1930250;74;21038;-57
2022/05/22 06:24:59;;;;;;;2.50;1.55;;;21.70;40.90;;;;;;1930197;74;21501;-58
2022/05/22 06:27:30;;;;;;;3.83;1.45;;;21.80;40.80;;;;;;1930279;74;21497;-57
2022/05/22 06:30:15;;;;;;;2.80;1.42;;;21.80;40.80;;;;;;1883656;74;21023;-57
2022/05/22 06:33:03;;;;;;;2.12;1.30;;;21.80;41.00;;;;;;1930137;74;21113;-57
2022/05/22 06:35:51;;;;;;;3.80;1.10;;;21.90;41.20;;;;;;1930291;74;21132;-57
2022/05/22 06:41:43;;;;;;;1.85;1.32;;;22.00;40.50;;;;;;1930221;74;21127;-58
2022/05/22 06:44:23;;;;;;;2.67;1.75;;;22.00;41.10;;;;;;1861256;76;21048;-59
2022/05/22 06:46:54;;;;;;;2.35;1.25;;;22.00;41.00;;;;;;1848263;77;21074;-59
2022/05/22 06:49:31;;;;;;;2.27;1.42;;;22.10;41.30;;;;;;1911257;74;21040;-59
2022/05/22 06:52:08;;;;;;;4.58;1.30;;;22.20;41.60;;;;;;1925410;74;21123;-58
2022/05/22 06:54:42;;;;;;;3.98;1.40;;;22.30;41.40;;;;;;1889519;74;21023;-58
2022/05/22 06:57:21;;;;;;;7.92;1.90;;;22.40;40.00;;;;;;1927470;74;21063;-58
2022/05/22 07:00:14;;;;;;;2.55;1.17;;;22.40;39.40;;;;;;1930177;74;21167;-59
2022/05/22 07:02:52;;;;;;;2.85;1.25;;;22.50;38.90;;;;;;1925166;74;21071;-58
2022/05/22 07:05:21;;;;;;;3.98;1.70;;;22.50;38.70;;;;;;1923832;74;21007;-58
2022/05/22 07:07:52;;;;;;;1.95;1.30;;;22.50;38.70;;;;;;1866068;74;21061;-59
2022/05/22 07:13:21;;;;;;;1.98;1.30;;;22.50;38.00;;;;;;1912230;74;21043;-58
2022/05/22 07:16:00;;;;;;;2.10;1.82;;;22.50;37.90;;;;;;1927316;74;21079;-59
2022/05/22 07:18:31;;;;;;;2.08;1.45;;;22.50;37.80;;;;;;1928769;74;21080;-58
2022/05/22 07:21:17;;;;;;;9.03;1.20;;;22.50;37.10;;;;;;1861200;76;21122;-58
2022/05/22 07:23:48;;;;;;;3.12;1.20;;;22.50;36.80;;;;;;1908806;74;21158;-58
2022/05/22 07:26:34;;;;;;;3.22;1.42;;;22.60;36.70;;;;;;1926619;74;21141;-59
2022/05/22 07:29:21;;;;;;;1.22;1.00;;;22.60;36.80;;;;;;1930086;74;21104;-58
2022/05/22 07:32:09;;;;;;;3.02;1.10;;;22.70;36.70;;;;;;1930088;74;21535;-58
2022/05/22 07:34:56;;;;;;;3.37;1.20;;;22.70;36.10;;;;;;1930142;74;21079;-58
2022/05/22 07:37:33;;;;;;;2.50;1.40;;;22.80;36.70;;;;;;1917940;74;21059;-58
2022/05/22 07:40:04;;;;;;;2.02;1.02;;;22.80;37.00;;;;;;1925381;74;21043;-58
2022/05/22 07:42:50;;;;;;;3.40;1.32;;;22.90;36.60;;;;;;1927299;74;21537;-58
2022/05/22 07:45:39;;;;;;;3.30;1.32;;;23.00;36.10;;;;;;1929824;74;21148;-58
2022/05/22 07:48:16;;;;;;;1.90;1.67;;;23.10;36.10;;;;;;1894965;74;21086;-58
2022/05/22 07:50:58;;;;;;;4.37;1.52;;;23.10;36.40;;;;;;1928435;74;21079;-58
2022/05/22 07:53:37;;;;;;;1.67;1.20;;;23.20;36.20;;;;;;1927424;74;21075;-58
2022/05/22 07:56:21;;;;;;;2.85;1.17;;;23.20;35.90;;;;;;1926128;74;21094;-58
2022/05/22 07:59:06;;;;;;;2.37;1.30;;;23.20;35.80;;;;;;1930321;74;21046;-58
2022/05/22 08:01:53;;;;;;;3.35;1.30;;;23.30;35.70;;;;;;1930227;74;21043;-58
2022/05/22 08:04:27;;;;;;;3.77;1.32;;;23.30;35.50;;;;;;1922873;74;21121;-58
2022/05/22 08:07:01;;;;;;;2.22;1.98;;;23.30;36.10;;;;;;1925016;74;21149;-58
2022/05/22 08:09:32;;;;;;;2.45;1.12;;;23.40;36.10;;;;;;1927240;74;21071;-58
2022/05/22 08:12:02;;;;;;;1.45;1.30;;;23.40;35.50;;;;;;1930092;74;21117;-58
2022/05/22 08:14:32;;;;;;;1.82;1.20;;;23.50;35.90;;;;;;1930435;74;21031;-58
2022/05/22 08:17:01;;;;;;;3.10;1.20;;;23.50;35.10;;;;;;1930312;74;21108;-58
2022/05/22 08:19:31;;;;;;;2.52;1.10;;;23.40;35.00;;;;;;1930313;74;21039;-58
2022/05/22 08:22:11;;;;;;;4.90;1.27;;;23.50;35.30;;;;;;1927984;74;21075;-58
2022/05/22 08:24:57;;;;;;;5.92;3.25;;;23.50;35.70;;;;;;1861353;76;21076;-58
2022/05/22 08:27:29;;;;;;;1.72;1.25;;;23.60;35.50;;;;;;1908994;74;21097;-58
2022/05/22 08:29:58;;;;;;;3.90;1.22;;;23.60;35.60;;;;;;1930267;74;21054;-58
2022/05/22 08:32:29;;;;;;;3.10;1.20;;;23.70;35.70;;;;;;1930174;74;21135;-58
2022/05/22 08:34:58;;;;;;;10.30;6.12;;;23.80;36.00;;;;;;1930287;74;21070;-58
2022/05/22 08:37:27;;;;;;;24.85;16.57;;;23.90;35.90;;;;;;1930205;74;21113;-58
2022/05/22 08:39:56;;;;;;;5.35;1.80;;;23.90;35.70;;;;;;1887093;76;21026;-58
2022/05/22 08:42:28;;;;;;;3.05;1.37;;;23.90;35.60;;;;;;1930162;74;21026;-59
2022/05/22 08:44:58;;;;;;;1.07;0.98;;;24.00;35.70;;;;;;1929348;74;21027;-59
2022/05/22 08:47:42;;;;;;;4.85;1.80;;;23.90;35.50;;;;;;1930061;74;21007;-58
2022/05/22 08:50:13;;;;;;;1.92;1.40;;;23.90;35.70;;;;;;1929827;74;21046;-59
2022/05/22 08:52:57;;;;;;;1.35;1.20;;;23.90;36.00;;;;;;1930226;74;21100;-58
2022/05/22 09:00:58;;;;;;;3.10;1.60;;;23.90;36.50;;;;;;1930151;74;21144;-59
2022/05/22 09:03:30;;;;;;;2.50;1.22;;;24.00;36.60;;;;;;1929431;74;21461;-59
2022/05/22 09:06:03;;;;;;;2.67;1.30;;;23.90;36.50;;;;;;1930188;74;21571;-59
2022/05/22 09:08:45;;;;;;;1.90;1.32;;;24.00;36.40;;;;;;1930604;74;21097;-59
2022/05/22 09:11:41;;;;;;;2.05;1.40;;;24.00;36.70;;;;;;1915565;74;21106;-59
2022/05/22 09:14:16;;;;;;;1.50;1.17;;;24.00;37.00;;;;;;1923751;74;21140;-59
2022/05/22 09:17:00;;;;;;;2.98;1.40;;;24.10;36.50;;;;;;1923597;74;21622;-58
2022/05/22 09:19:34;;;;;;;2.98;1.30;;;24.10;36.80;;;;;;1923895;74;21485;-58
2022/05/22 09:22:10;;;;;;;;;;;24.10;36.60;;;;;;1916983;74;21117;-58
2022/05/22 09:25:12;;;;;;;2.77;1.47;;;24.10;35.80;;;;;;1903960;74;20106;-59
2022/05/22 09:27:50;;;;;;;3.65;1.10;;;23.90;36.10;;;;;;1923763;74;21019;-58
2022/05/22 09:30:39;;;;;;;3.87;1.30;;;23.90;36.30;;;;;;1923992;74;21104;-59
2022/05/22 09:33:27;;;;;;;2.02;1.55;;;23.90;36.00;;;;;;1923342;74;21035;-59
2022/05/22 09:36:14;;;;;;;2.20;1.37;;;24.00;36.40;;;;;;1923751;74;21085;-58
2022/05/22 09:39:01;;;;;;;1.72;1.60;;;24.00;36.20;;;;;;1923257;74;21023;-59
2022/05/22 09:41:35;;;;;;;1.40;1.30;;;24.10;36.70;;;;;;1922654;74;21031;-58
2022/05/22 09:44:14;;;;;;;3.27;1.50;;;24.10;36.80;;;;;;1923027;74;21042;-58
2022/05/22 09:47:07;;;;;;;1.52;1.32;;;24.10;37.10;;;;;;1922193;74;21489;-58
2022/05/22 09:50:14;;;;;;;5.78;1.32;;;24.10;37.40;;;;;;1779013;79;21152;-58
2022/05/22 09:53:05;;;;;;;2.25;1.32;;;24.00;37.50;;;;;;1813415;78;21147;-58
2022/05/22 09:55:44;;;;;;;1.65;1.10;;;24.00;37.30;;;;;;1904148;74;21046;-59
2022/05/22 09:58:32;;;;;;;4.17;1.45;;;24.00;37.00;;;;;;1923770;74;21098;-59
2022/05/22 10:01:04;;;;;;;3.45;1.25;;;24.00;37.00;;;;;;1923588;74;21062;-58
2022/05/22 10:03:45;;;;;;;3.77;1.45;;;24.00;37.10;;;;;;1923793;74;21043;-58
2022/05/22 10:06:20;;;;;;;2.25;1.47;;;24.10;37.50;;;;;;1923053;74;21047;-58
2022/05/22 10:09:09;;;;;;;1.95;1.22;;;24.10;36.90;;;;;;1923742;74;21047;-58
2022/05/22 10:11:44;;;;;;;2.05;1.27;;;24.20;36.60;;;;;;1922491;74;21078;-58
2022/05/22 10:14:34;;;;;;;3.22;1.22;;;24.20;36.80;;;;;;1923808;74;21089;-58
2022/05/22 10:17:26;;;;;;;1.90;1.30;;;24.10;36.80;;;;;;1923683;74;21089;-58
2022/05/22 10:20:21;;;;;;;1.90;1.22;;;24.10;37.10;;;;;;1923819;74;21039;-58
2022/05/22 10:23:14;;;;;;;5.37;2.30;;;24.10;36.80;;;;;;1923974;74;21086;-58
2022/05/22 10:26:01;;;;;;;5.60;1.60;;;24.10;37.00;;;;;;1923232;74;21551;-58
2022/05/22 10:28:38;;;;;;;3.25;1.60;;;24.10;37.40;;;;;;1844275;77;21050;-58
2022/05/22 10:31:19;;;;;;;2.80;1.60;;;24.20;37.60;;;;;;1922870;74;21051;-58
2022/05/22 10:34:28;;;;;;;1.80;1.40;;;24.20;37.70;;;;;;1909097;74;21176;-58
2022/05/22 10:37:00;;;;;;;5.05;3.60;;;24.20;37.80;;;;;;1923395;74;21031;-58
2022/05/22 10:39:30;;;;;;;2.10;1.50;;;24.30;38.30;;;;;;1923865;74;21055;-58
2022/05/22 10:44:51;;;;;;;1.95;1.52;;;24.40;39.10;;;;;;1923815;74;21136;-58
2022/05/22 10:47:29;;;;;;;3.35;1.47;;;24.50;39.30;;;;;;1852111;77;21046;-58
2022/05/22 10:50:00;;;;;;;1.70;1.10;;;24.50;38.60;;;;;;1923290;73;21474;-58
2022/05/22 10:52:39;;;;;;;2.62;1.57;;;24.60;38.90;;;;;;1923721;74;21008;-58
2022/05/22 10:55:08;;;;;;;3.75;1.50;;;24.60;38.80;;;;;;1923342;74;21105;-58
2022/05/22 10:57:37;;;;;;;3.25;1.65;;;24.70;39.00;;;;;;1922074;74;21489;-58
2022/05/22 11:00:15;;;;;;;2.12;1.50;;;24.80;39.00;;;;;;1923777;74;21042;-58
2022/05/22 11:02:44;;;;;;;3.92;1.90;;;24.80;39.10;;;;;;1923648;74;21055;-58
2022/05/22 11:05:22;;;;;;;3.70;1.45;;;24.80;39.40;;;;;;1923697;74;21171;-58
2022/05/22 11:07:53;;;;;;;2.72;1.50;;;24.70;39.80;;;;;;1923734;74;21113;-58
2022/05/22 11:10:25;;;;;;;1.90;1.62;;;24.70;40.20;;;;;;1923846;74;21027;-58
2022/05/22 11:13:03;;;;;;;2.95;2.00;;;24.70;40.70;;;;;;1927417;74;21062;-58
2022/05/22 11:15:37;;;;;;;2.33;1.30;;;24.80;40.80;;;;;;1933708;74;21077;-58
2022/05/22 11:18:10;;;;;;;3.75;1.87;;;24.70;41.00;;;;;;1933826;74;21015;-59
2022/05/22 11:20:49;;;;;;;6.47;2.42;;;24.70;41.20;;;;;;1933827;74;21088;-58
2022/05/22 11:23:29;;;;;;;2.72;1.85;;;24.80;41.40;;;;;;1933653;74;21089;-58
2022/05/22 11:26:17;;;;;;;3.33;1.85;;;24.80;41.30;;;;;;1932250;74;20999;-58
2022/05/22 11:29:00;;;;;;;4.83;2.10;;;24.90;41.30;;;;;;1933758;74;21042;-59
2022/05/22 11:31:37;;;;;;;4.25;1.30;;;24.90;41.40;;;;;;1933160;73;21206;-58
2022/05/22 11:34:30;;;;;;;3.67;1.70;;;24.90;41.40;;;;;;1932904;74;21543;-57
2022/05/22 11:37:19;;;;;;;3.47;1.70;;;24.90;41.60;;;;;;1932230;74;21054;-58
2022/05/22 11:39:56;;;;;;;2.85;1.60;;;25.00;41.50;;;;;;1933630;74;21434;-58
2022/05/22 11:42:33;;;;;;;1.60;1.50;;;25.00;41.00;;;;;;1908434;73;21092;-58
2022/05/22 11:45:23;;;;;;;2.72;1.92;;;25.00;41.30;;;;;;1933714;74;20995;-58
2022/05/22 11:48:10;;;;;;;2.72;1.82;;;25.00;41.50;;;;;;1926428;74;21096;-58
2022/05/22 11:51:02;;;;;;;2.60;1.57;;;25.00;41.80;;;;;;1933623;74;21087;-58
2022/05/22 11:53:40;;;;;;;1.80;1.50;;;25.00;41.30;;;;;;1932413;73;21030;-58
2022/05/22 11:56:29;;;;;;;2.67;1.95;;;25.10;41.40;;;;;;1933584;74;21022;-58
2022/05/22 11:59:04;;;;;;;1.70;1.60;;;25.20;41.30;;;;;;1933620;74;21140;-58
2022/05/22 12:01:48;;;;;;;3.90;1.77;;;25.20;41.20;;;;;;1932543;74;21422;-58
2022/05/22 12:04:41;;;;;;;2.70;1.82;;;25.20;41.60;;;;;;1837126;77;21103;-58
2022/05/22 12:07:37;;;;;;;2.67;1.77;;;25.20;41.80;;;;;;1893571;75;21024;-58
2022/05/22 12:10:27;;;;;;;2.10;1.75;;;25.30;41.90;;;;;;1892058;75;21129;-58
2022/05/22 12:13:19;;;;;;;2.90;1.85;;;25.20;41.70;;;;;;1893374;74;21051;-58
2022/05/22 12:16:08;;;;;;;4.65;2.40;;;25.10;41.50;;;;;;1892956;75;21058;-58
2022/05/22 12:21:29;;;;;;;6.75;2.60;;;25.10;41.70;;;;;;1798043;78;21103;-58
2022/05/22 12:24:19;;;;;;;9.23;3.17;;;25.10;41.30;;;;;;1797698;79;21087;-58
2022/05/22 12:26:49;;;;;;;2.40;1.80;;;25.10;41.50;;;;;;1828945;78;21053;-58
2022/05/22 12:29:27;;;;;;;5.85;2.00;;;25.00;41.00;;;;;;1798102;78;21052;-58
2022/05/22 12:32:02;;;;;;;2.85;1.62;;;25.00;41.20;;;;;;1797897;80;21064;-58
2022/05/22 12:34:37;;;;;;;2.67;1.80;;;25.00;41.50;;;;;;1797380;79;21543;-58
2022/05/22 12:37:09;;;;;;;2.83;1.55;;;25.00;41.70;;;;;;1828860;77;21561;-59
2022/05/22 12:39:41;;;;;;;3.50;1.55;;;25.10;41.70;;;;;;1828978;77;21440;-59
2022/05/22 12:42:17;;;;;;;4.72;2.08;;;25.00;41.00;;;;;;1828286;77;21150;-59
2022/05/22 12:44:46;;;;;;;2.08;1.52;;;24.90;41.30;;;;;;1826995;78;21127;-59
2022/05/22 12:47:16;;;;;;;3.37;2.90;;;24.80;42.10;;;;;;1798077;78;21114;-59
2022/05/22 12:49:58;;;;;;;3.47;1.80;;;24.80;41.60;;;;;;1828819;77;21196;-59
2022/05/22 12:52:30;;;;;;;4.05;1.65;;;24.80;41.50;;;;;;1828888;77;21060;-59
2022/05/22 12:55:09;;;;;;;8.38;2.15;;;24.70;41.30;;;;;;1828907;77;21479;-59
2022/05/22 12:57:36;;;;;;;4.70;1.37;;;24.70;40.90;;;;;;1797951;80;21075;-59
2022/05/22 13:00:21;;;;;;;2.00;1.80;;;24.60;40.50;;;;;;1828902;78;21053;-59
2022/05/22 13:02:50;;;;;;;2.02;1.80;;;24.60;40.50;;;;;;1826470;78;21043;-58
2022/05/22 13:05:25;;;;;;;3.65;1.80;;;24.60;40.70;;;;;;1797983;78;21051;-59
2022/05/22 13:07:55;;;;;;;3.30;2.10;;;24.50;40.60;;;;;;1827865;77;21084;-59
2022/05/22 13:10:35;;;;;;;1.95;1.50;;;24.60;40.40;;;;;;1798163;78;21103;-59
2022/05/22 13:13:08;;;;;;;2.70;1.72;;;24.60;40.10;;;;;;1828969;78;21120;-58
2022/05/22 13:15:39;;;;;;;2.42;1.55;;;24.60;40.30;;;;;;1798062;78;21067;-58
2022/05/22 13:18:17;;;;;;;14.13;2.30;;;24.70;39.90;;;;;;1795746;78;21564;-59
2022/05/22 13:20:54;;;;;;;3.15;1.50;;;24.60;39.30;;;;;;1841094;76;21549;-58
2022/05/22 13:23:30;;;;;;;7.28;2.10;;;24.60;38.90;;;;;;1850686;77;21070;-59
2022/05/22 13:26:05;;;;;;;9.98;2.02;;;24.60;38.60;;;;;;1852476;77;21035;-59
2022/05/22 13:28:37;;;;;;;9.00;1.90;;;24.50;38.70;;;;;;1852363;77;21108;-59
2022/05/22 13:31:12;;;;;;;10.75;2.95;;;24.40;38.50;;;;;;1850660;77;21105;-59
2022/05/22 13:33:44;;;;;;;5.75;1.55;;;24.30;38.60;;;;;;1851132;77;21019;-59
2022/05/22 13:36:32;;;;;;;5.42;2.58;;;24.30;38.80;;;;;;1852472;77;21117;-59
2022/05/22 13:39:03;;;;;;;2.87;1.50;;;24.10;38.80;;;;;;1852432;77;21039;-59
2022/05/22 13:41:54;;;;;;;3.58;1.32;;;24.00;39.00;;;;;;1851525;77;21055;-59
2022/05/22 13:44:32;;;;;;;5.53;1.50;;;23.90;39.00;;;;;;1852332;77;21035;-58
2022/05/22 13:47:19;;;;;;;6.28;2.22;;;23.80;38.90;;;;;;1789371;77;21023;-59
2022/05/22 13:52:58;;;;;;;4.85;3.12;;;23.60;39.30;;;;;;1852517;77;21145;-59